sensor_id;sensor_type;location;lat;lon;timestamp;temperature;humidity
54960;DHT22;40860;51.710;8.736;2023-09-19T00:00:12;16.70;99.90
54960;DHT22;40860;51.710;8.736;2023-09-19T00:04:16;16.70;99.90
54960;DHT22;40860;51.710;8.736;2023-09-19T00:08:21;16.70;99.90
54960;DHT22;40860;51.710;8.736;2023-09-19T00:12:26;16.70;99.90
54960;DHT22;40860;51.710;8.736;2023-09-19T00:16:33;16.60;99.90
54960;DHT22;40860;51.710;8.736;2023-09-19T00:20:38;16.60;99.90
54960;DHT22;40860;51.710;8.736;2023-09-19T00:24:45;16.60;99.90
54960;DHT22;40860;51.710;8.736;2023-09-19T00:28:48;16.60;99.90
54960;DHT22;40860;51.710;8.736;2023-09-19T00:32:56;16.50;99.90
54960;DHT22;40860;51.710;8.736;2023-09-19T00:36:59;16.50;99.90
54960;DHT22;40860;51.710;8.736;2023-09-19T00:41:02;16.50;99.90
54960;DHT22;40860;51.710;8.736;2023-09-19T00:45:07;16.40;99.90
54960;DHT22;40860;51.710;8.736;2023-09-19T00:49:13;16.40;99.90
54960;DHT22;40860;51.710;8.736;2023-09-19T00:53:19;16.40;99.90
54960;DHT22;40860;51.710;8.736;2023-09-19T00:57:29;16.40;99.90
54960;DHT22;40860;51.710;8.736;2023-09-19T01:01:34;16.40;99.90
54960;DHT22;40860;51.710;8.736;2023-09-19T01:05:42;16.40;99.90
54960;DHT22;40860;51.710;8.736;2023-09-19T01:09:46;16.40;99.90
54960;DHT22;40860;51.710;8.736;2023-09-19T01:14:00;16.40;99.90
54960;DHT22;40860;51.710;8.736;2023-09-19T01:18:13;16.30;99.90
54960;DHT22;40860;51.710;8.736;2023-09-19T01:22:26;16.30;99.90
54960;DHT22;40860;51.710;8.736;2023-09-19T01:26:54;16.30;99.90
54960;DHT22;40860;51.710;8.736;2023-09-19T01:31:01;16.30;99.90
54960;DHT22;40860;51.710;8.736;2023-09-19T01:35:05;16.30;99.90
54960;DHT22;40860;51.710;8.736;2023-09-19T01:39:13;16.20;99.90
54960;DHT22;40860;51.710;8.736;2023-09-19T01:43:20;16.20;99.90
54960;DHT22;40860;51.710;8.736;2023-09-19T01:47:32;16.10;99.90
54960;DHT22;40860;51.710;8.736;2023-09-19T01:51:42;16.10;99.90
54960;DHT22;40860;51.710;8.736;2023-09-19T01:55:49;16.10;99.90
54960;DHT22;40860;51.710;8.736;2023-09-19T01:59:59;16.10;99.90
54960;DHT22;40860;51.710;8.736;2023-09-19T02:04:15;16.10;99.90
54960;DHT22;40860;51.710;8.736;2023-09-19T02:08:19;16.10;99.90
54960;DHT22;40860;51.710;8.736;2023-09-19T02:12:22;16.10;99.90
54960;DHT22;40860;51.710;8.736;2023-09-19T02:16:25;16.20;99.90
54960;DHT22;40860;51.710;8.736;2023-09-19T02:20:30;16.20;99.90
54960;DHT22;40860;51.710;8.736;2023-09-19T02:24:35;16.20;99.90
54960;DHT22;40860;51.710;8.736;2023-09-19T02:28:38;16.20;99.90
54960;DHT22;40860;51.710;8.736;2023-09-19T02:32:43;16.20;99.90
54960;DHT22;40860;51.710;8.736;2023-09-19T02:36:48;16.10;99.80
54960;DHT22;40860;51.710;8.736;2023-09-19T02:40:50;16.10;99.90
54960;DHT22;40860;51.710;8.736;2023-09-19T02:44:54;16.10;99.90
54960;DHT22;40860;51.710;8.736;2023-09-19T02:48:58;16.10;99.90
54960;DHT22;40860;51.710;8.736;2023-09-19T02:53:03;16.00;99.90
54960;DHT22;40860;51.710;8.736;2023-09-19T02:57:07;15.90;99.80
54960;DHT22;40860;51.710;8.736;2023-09-19T03:01:13;15.90;99.80
54960;DHT22;40860;51.710;8.736;2023-09-19T03:05:17;15.90;99.80
54960;DHT22;40860;51.710;8.736;2023-09-19T03:09:22;15.80;99.80
54960;DHT22;40860;51.710;8.736;2023-09-19T03:13:25;15.80;99.80
54960;DHT22;40860;51.710;8.736;2023-09-19T03:17:28;15.80;99.90
54960;DHT22;40860;51.710;8.736;2023-09-19T03:21:31;15.80;99.80
54960;DHT22;40860;51.710;8.736;2023-09-19T03:25:35;15.70;99.80
54960;DHT22;40860;51.710;8.736;2023-09-19T03:29:39;15.70;99.80
54960;DHT22;40860;51.710;8.736;2023-09-19T03:33:42;15.70;99.70
54960;DHT22;40860;51.710;8.736;2023-09-19T03:37:45;15.70;99.70
54960;DHT22;40860;51.710;8.736;2023-09-19T03:41:50;15.60;99.60
54960;DHT22;40860;51.710;8.736;2023-09-19T03:45:53;15.60;99.60
54960;DHT22;40860;51.710;8.736;2023-09-19T03:49:58;15.60;99.60
54960;DHT22;40860;51.710;8.736;2023-09-19T03:54:01;15.50;99.30
54960;DHT22;40860;51.710;8.736;2023-09-19T03:58:07;15.50;99.40
54960;DHT22;40860;51.710;8.736;2023-09-19T04:02:09;15.40;99.30
54960;DHT22;40860;51.710;8.736;2023-09-19T04:06:24;15.40;99.10
54960;DHT22;40860;51.710;8.736;2023-09-19T04:10:32;15.40;98.90
54960;DHT22;40860;51.710;8.736;2023-09-19T04:14:36;15.30;98.80
54960;DHT22;40860;51.710;8.736;2023-09-19T04:18:40;15.20;98.60
54960;DHT22;40860;51.710;8.736;2023-09-19T04:22:43;15.20;98.40
54960;DHT22;40860;51.710;8.736;2023-09-19T04:26:46;15.20;98.20
54960;DHT22;40860;51.710;8.736;2023-09-19T04:30:51;15.10;98.20
54960;DHT22;40860;51.710;8.736;2023-09-19T04:34:54;15.10;98.30
54960;DHT22;40860;51.710;8.736;2023-09-19T04:39:01;15.10;98.30
54960;DHT22;40860;51.710;8.736;2023-09-19T04:43:06;15.00;98.40
54960;DHT22;40860;51.710;8.736;2023-09-19T04:47:10;15.00;98.20
54960;DHT22;40860;51.710;8.736;2023-09-19T04:51:14;15.00;98.30
54960;DHT22;40860;51.710;8.736;2023-09-19T04:55:17;14.90;98.10
54960;DHT22;40860;51.710;8.736;2023-09-19T04:59:21;14.90;98.10
54960;DHT22;40860;51.710;8.736;2023-09-19T05:03:26;14.80;98.10
54960;DHT22;40860;51.710;8.736;2023-09-19T05:07:29;14.80;98.10
54960;DHT22;40860;51.710;8.736;2023-09-19T05:11:32;14.80;98.10
54960;DHT22;40860;51.710;8.736;2023-09-19T05:15:35;14.70;98.00
54960;DHT22;40860;51.710;8.736;2023-09-19T05:19:40;14.70;97.80
54960;DHT22;40860;51.710;8.736;2023-09-19T05:23:42;14.70;97.70
54960;DHT22;40860;51.710;8.736;2023-09-19T05:27:46;14.70;97.70
54960;DHT22;40860;51.710;8.736;2023-09-19T05:31:50;14.60;97.60
54960;DHT22;40860;51.710;8.736;2023-09-19T05:35:54;14.60;97.50
54960;DHT22;40860;51.710;8.736;2023-09-19T05:40:01;14.50;97.40
54960;DHT22;40860;51.710;8.736;2023-09-19T05:44:04;14.60;97.40
54960;DHT22;40860;51.710;8.736;2023-09-19T05:48:09;14.50;97.50
54960;DHT22;40860;51.710;8.736;2023-09-19T05:52:14;14.50;97.60
54960;DHT22;40860;51.710;8.736;2023-09-19T05:56:19;14.50;97.60
54960;DHT22;40860;51.710;8.736;2023-09-19T06:00:23;14.50;97.60
54960;DHT22;40860;51.710;8.736;2023-09-19T06:04:28;14.50;97.40
54960;DHT22;40860;51.710;8.736;2023-09-19T06:08:33;14.50;97.30
54960;DHT22;40860;51.710;8.736;2023-09-19T06:12:38;14.60;97.20
54960;DHT22;40860;51.710;8.736;2023-09-19T06:16:41;14.60;96.90
54960;DHT22;40860;51.710;8.736;2023-09-19T06:20:46;14.60;97.00
54960;DHT22;40860;51.710;8.736;2023-09-19T06:24:50;14.60;96.80
54960;DHT22;40860;51.710;8.736;2023-09-19T06:28:53;14.60;96.90
54960;DHT22;40860;51.710;8.736;2023-09-19T06:32:57;14.60;96.80
54960;DHT22;40860;51.710;8.736;2023-09-19T06:37:01;14.60;96.60
54960;DHT22;40860;51.710;8.736;2023-09-19T06:41:06;14.70;96.50
54960;DHT22;40860;51.710;8.736;2023-09-19T06:45:10;14.70;96.60
54960;DHT22;40860;51.710;8.736;2023-09-19T06:49:15;14.80;96.40
54960;DHT22;40860;51.710;8.736;2023-09-19T06:53:18;14.90;96.40
54960;DHT22;40860;51.710;8.736;2023-09-19T06:57:22;14.90;96.50
54960;DHT22;40860;51.710;8.736;2023-09-19T07:01:25;14.90;96.10
54960;DHT22;40860;51.710;8.736;2023-09-19T07:05:28;15.00;96.10
54960;DHT22;40860;51.710;8.736;2023-09-19T07:09:31;15.10;96.10
54960;DHT22;40860;51.710;8.736;2023-09-19T07:13:35;15.10;96.00
54960;DHT22;40860;51.710;8.736;2023-09-19T07:17:38;15.10;95.90
54960;DHT22;40860;51.710;8.736;2023-09-19T07:21:41;15.20;96.20
54960;DHT22;40860;51.710;8.736;2023-09-19T07:25:44;15.30;96.00
54960;DHT22;40860;51.710;8.736;2023-09-19T07:29:49;15.40;96.10
54960;DHT22;40860;51.710;8.736;2023-09-19T07:33:55;15.40;95.80
54960;DHT22;40860;51.710;8.736;2023-09-19T07:37:58;15.50;95.80
54960;DHT22;40860;51.710;8.736;2023-09-19T07:42:03;15.50;95.60
54960;DHT22;40860;51.710;8.736;2023-09-19T07:46:10;15.60;95.80
54960;DHT22;40860;51.710;8.736;2023-09-19T07:50:13;15.70;95.70
54960;DHT22;40860;51.710;8.736;2023-09-19T07:54:17;15.70;95.50
54960;DHT22;40860;51.710;8.736;2023-09-19T07:58:21;15.80;95.30
54960;DHT22;40860;51.710;8.736;2023-09-19T08:02:26;15.90;95.00
54960;DHT22;40860;51.710;8.736;2023-09-19T08:06:32;15.90;95.00
54960;DHT22;40860;51.710;8.736;2023-09-19T08:10:35;16.10;95.10
54960;DHT22;40860;51.710;8.736;2023-09-19T08:14:41;16.20;94.90
54960;DHT22;40860;51.710;8.736;2023-09-19T08:18:48;16.30;94.90
54960;DHT22;40860;51.710;8.736;2023-09-19T08:22:56;16.50;94.80
54960;DHT22;40860;51.710;8.736;2023-09-19T08:26:59;16.50;94.40
54960;DHT22;40860;51.710;8.736;2023-09-19T08:31:03;16.60;94.70
54960;DHT22;40860;51.710;8.736;2023-09-19T08:35:08;16.60;94.30
54960;DHT22;40860;51.710;8.736;2023-09-19T08:39:12;16.80;94.50
54960;DHT22;40860;51.710;8.736;2023-09-19T08:43:15;16.90;93.90
54960;DHT22;40860;51.710;8.736;2023-09-19T08:47:23;17.10;94.50
54960;DHT22;40860;51.710;8.736;2023-09-19T08:51:33;17.20;93.80
54960;DHT22;40860;51.710;8.736;2023-09-19T08:55:43;17.20;93.50
54960;DHT22;40860;51.710;8.736;2023-09-19T08:59:47;17.20;93.30
54960;DHT22;40860;51.710;8.736;2023-09-19T09:03:51;17.30;93.30
54960;DHT22;40860;51.710;8.736;2023-09-19T09:07:56;17.40;93.30
54960;DHT22;40860;51.710;8.736;2023-09-19T09:12:02;17.50;93.20
54960;DHT22;40860;51.710;8.736;2023-09-19T09:16:07;17.50;92.80
54960;DHT22;40860;51.710;8.736;2023-09-19T09:20:11;17.50;92.50
54960;DHT22;40860;51.710;8.736;2023-09-19T09:24:28;17.60;92.50
54960;DHT22;40860;51.710;8.736;2023-09-19T09:28:33;17.70;92.20
54960;DHT22;40860;51.710;8.736;2023-09-19T09:32:37;17.60;91.70
54960;DHT22;40860;51.710;8.736;2023-09-19T09:36:56;17.70;91.80
54960;DHT22;40860;51.710;8.736;2023-09-19T09:41:01;17.90;92.00
54960;DHT22;40860;51.710;8.736;2023-09-19T09:45:17;18.00;91.30
54960;DHT22;40860;51.710;8.736;2023-09-19T09:49:23;18.10;90.90
54960;DHT22;40860;51.710;8.736;2023-09-19T09:53:29;18.20;90.60
54960;DHT22;40860;51.710;8.736;2023-09-19T09:57:35;18.10;89.30
54960;DHT22;40860;51.710;8.736;2023-09-19T10:01:46;18.20;89.40
54960;DHT22;40860;51.710;8.736;2023-09-19T10:05:53;18.30;90.00
54960;DHT22;40860;51.710;8.736;2023-09-19T10:09:57;18.40;89.10
54960;DHT22;40860;51.710;8.736;2023-09-19T10:14:09;18.40;88.20
54960;DHT22;40860;51.710;8.736;2023-09-19T10:18:14;18.30;87.50
54960;DHT22;40860;51.710;8.736;2023-09-19T10:22:20;18.30;87.90
54960;DHT22;40860;51.710;8.736;2023-09-19T10:26:25;18.40;87.70
54960;DHT22;40860;51.710;8.736;2023-09-19T10:30:37;18.40;86.70
54960;DHT22;40860;51.710;8.736;2023-09-19T10:34:41;18.50;87.00
54960;DHT22;40860;51.710;8.736;2023-09-19T10:38:45;18.50;86.70
54960;DHT22;40860;51.710;8.736;2023-09-19T10:42:50;18.70;85.70
54960;DHT22;40860;51.710;8.736;2023-09-19T10:46:55;18.80;86.80
54960;DHT22;40860;51.710;8.736;2023-09-19T10:51:04;18.90;84.10
54960;DHT22;40860;51.710;8.736;2023-09-19T10:55:09;18.90;84.30
54960;DHT22;40860;51.710;8.736;2023-09-19T10:59:21;18.80;82.70
54960;DHT22;40860;51.710;8.736;2023-09-19T11:03:27;18.80;82.10
54960;DHT22;40860;51.710;8.736;2023-09-19T11:07:58;19.00;83.00
54960;DHT22;40860;51.710;8.736;2023-09-19T11:12:03;19.10;82.30
54960;DHT22;40860;51.710;8.736;2023-09-19T11:16:06;19.00;79.70
54960;DHT22;40860;51.710;8.736;2023-09-19T11:20:22;18.90;80.40
54960;DHT22;40860;51.710;8.736;2023-09-19T11:24:42;18.90;81.10
54960;DHT22;40860;51.710;8.736;2023-09-19T11:28:45;19.00;81.20
54960;DHT22;40860;51.710;8.736;2023-09-19T11:42:43;19.30;79.30
54960;DHT22;40860;51.710;8.736;2023-09-19T11:46:54;19.40;79.40
54960;DHT22;40860;51.710;8.736;2023-09-19T11:50:58;19.30;78.80
54960;DHT22;40860;51.710;8.736;2023-09-19T11:55:04;19.40;78.40
54960;DHT22;40860;51.710;8.736;2023-09-19T11:59:08;19.40;80.00
54960;DHT22;40860;51.710;8.736;2023-09-19T12:03:12;19.40;78.20
54960;DHT22;40860;51.710;8.736;2023-09-19T12:07:16;19.50;78.90
54960;DHT22;40860;51.710;8.736;2023-09-19T12:11:22;19.50;78.40
54960;DHT22;40860;51.710;8.736;2023-09-19T12:15:28;19.60;78.20
54960;DHT22;40860;51.710;8.736;2023-09-19T12:19:36;19.80;78.90
54960;DHT22;40860;51.710;8.736;2023-09-19T12:23:40;20.00;77.80
54960;DHT22;40860;51.710;8.736;2023-09-19T12:27:44;20.00;79.00
54960;DHT22;40860;51.710;8.736;2023-09-19T12:31:51;20.00;77.50
54960;DHT22;40860;51.710;8.736;2023-09-19T12:35:57;20.20;76.60
54960;DHT22;40860;51.710;8.736;2023-09-19T12:40:05;20.10;75.00
54960;DHT22;40860;51.710;8.736;2023-09-19T12:44:17;20.40;75.80
54960;DHT22;40860;51.710;8.736;2023-09-19T12:48:23;20.40;75.50
54960;DHT22;40860;51.710;8.736;2023-09-19T12:52:36;20.60;76.30
54960;DHT22;40860;51.710;8.736;2023-09-19T12:56:40;20.50;73.50
54960;DHT22;40860;51.710;8.736;2023-09-19T13:00:46;20.50;74.80
54960;DHT22;40860;51.710;8.736;2023-09-19T13:04:54;20.40;74.70
54960;DHT22;40860;51.710;8.736;2023-09-19T13:09:08;20.60;73.10
54960;DHT22;40860;51.710;8.736;2023-09-19T13:13:22;20.50;73.20
54960;DHT22;40860;51.710;8.736;2023-09-19T13:17:42;20.40;73.00
54960;DHT22;40860;51.710;8.736;2023-09-19T13:21:47;20.40;74.30
54960;DHT22;40860;51.710;8.736;2023-09-19T13:25:52;20.30;74.00
54960;DHT22;40860;51.710;8.736;2023-09-19T13:29:55;20.20;73.10
54960;DHT22;40860;51.710;8.736;2023-09-19T13:33:59;20.00;74.00
54960;DHT22;40860;51.710;8.736;2023-09-19T13:38:03;20.20;73.90
54960;DHT22;40860;51.710;8.736;2023-09-19T13:42:08;20.10;74.50
54960;DHT22;40860;51.710;8.736;2023-09-19T13:46:13;20.30;74.60
54960;DHT22;40860;51.710;8.736;2023-09-19T13:50:18;20.40;73.50
54960;DHT22;40860;51.710;8.736;2023-09-19T13:54:27;20.30;73.70
54960;DHT22;40860;51.710;8.736;2023-09-19T13:58:29;20.30;74.60
54960;DHT22;40860;51.710;8.736;2023-09-19T14:02:35;20.20;74.20
54960;DHT22;40860;51.710;8.736;2023-09-19T14:06:41;20.30;74.20
54960;DHT22;40860;51.710;8.736;2023-09-19T14:10:46;20.40;73.20
54960;DHT22;40860;51.710;8.736;2023-09-19T14:14:49;20.50;73.50
54960;DHT22;40860;51.710;8.736;2023-09-19T14:18:52;20.60;72.60
54960;DHT22;40860;51.710;8.736;2023-09-19T14:22:55;20.60;73.50
54960;DHT22;40860;51.710;8.736;2023-09-19T14:27:02;20.70;72.80
54960;DHT22;40860;51.710;8.736;2023-09-19T14:31:06;20.80;74.50
54960;DHT22;40860;51.710;8.736;2023-09-19T14:35:09;20.90;75.50
54960;DHT22;40860;51.710;8.736;2023-09-19T14:39:16;21.00;73.00
54960;DHT22;40860;51.710;8.736;2023-09-19T14:43:22;20.90;72.10
54960;DHT22;40860;51.710;8.736;2023-09-19T14:47:25;20.90;72.80
54960;DHT22;40860;51.710;8.736;2023-09-19T14:51:30;20.90;70.70
54960;DHT22;40860;51.710;8.736;2023-09-19T14:55:36;20.90;71.70
54960;DHT22;40860;51.710;8.736;2023-09-19T14:59:44;21.20;72.50
54960;DHT22;40860;51.710;8.736;2023-09-19T15:03:47;21.20;72.50
54960;DHT22;40860;51.710;8.736;2023-09-19T15:07:51;21.90;70.00
54960;DHT22;40860;51.710;8.736;2023-09-19T15:16:00;22.00;66.60
54960;DHT22;40860;51.710;8.736;2023-09-19T15:20:05;21.80;68.20
54960;DHT22;40860;51.710;8.736;2023-09-19T15:24:08;21.70;69.20
54960;DHT22;40860;51.710;8.736;2023-09-19T15:28:12;21.50;69.20
54960;DHT22;40860;51.710;8.736;2023-09-19T15:32:16;21.20;68.20
54960;DHT22;40860;51.710;8.736;2023-09-19T15:36:19;20.80;68.70
54960;DHT22;40860;51.710;8.736;2023-09-19T15:40:22;20.60;69.50
54960;DHT22;40860;51.710;8.736;2023-09-19T15:44:25;20.40;70.60
54960;DHT22;40860;51.710;8.736;2023-09-19T15:48:29;20.20;69.50
54960;DHT22;40860;51.710;8.736;2023-09-19T15:52:32;20.00;70.20
54960;DHT22;40860;51.710;8.736;2023-09-19T15:56:35;19.90;70.70
54960;DHT22;40860;51.710;8.736;2023-09-19T16:00:40;19.80;70.70
54960;DHT22;40860;51.710;8.736;2023-09-19T16:04:44;19.70;71.30
54960;DHT22;40860;51.710;8.736;2023-09-19T16:08:48;19.70;72.50
54960;DHT22;40860;51.710;8.736;2023-09-19T16:12:51;19.60;72.60
54960;DHT22;40860;51.710;8.736;2023-09-19T16:16:54;19.60;73.80
54960;DHT22;40860;51.710;8.736;2023-09-19T16:21:04;19.50;73.60
54960;DHT22;40860;51.710;8.736;2023-09-19T16:25:07;19.50;74.10
54960;DHT22;40860;51.710;8.736;2023-09-19T16:29:13;19.40;74.90
54960;DHT22;40860;51.710;8.736;2023-09-19T16:33:16;19.40;75.90
54960;DHT22;40860;51.710;8.736;2023-09-19T16:37:20;19.40;75.40
54960;DHT22;40860;51.710;8.736;2023-09-19T16:41:24;19.30;75.40
54960;DHT22;40860;51.710;8.736;2023-09-19T16:45:27;19.30;75.80
54960;DHT22;40860;51.710;8.736;2023-09-19T16:49:31;19.30;76.20
54960;DHT22;40860;51.710;8.736;2023-09-19T16:53:36;19.20;76.80
54960;DHT22;40860;51.710;8.736;2023-09-19T16:57:39;19.20;76.70
54960;DHT22;40860;51.710;8.736;2023-09-19T17:01:44;19.10;77.10
54960;DHT22;40860;51.710;8.736;2023-09-19T17:05:47;19.10;78.10
54960;DHT22;40860;51.710;8.736;2023-09-19T17:09:52;18.90;78.00
54960;DHT22;40860;51.710;8.736;2023-09-19T17:13:55;18.90;77.40
54960;DHT22;40860;51.710;8.736;2023-09-19T17:17:59;18.80;77.80
54960;DHT22;40860;51.710;8.736;2023-09-19T17:22:02;18.80;78.10
54960;DHT22;40860;51.710;8.736;2023-09-19T17:26:08;18.70;78.50
54960;DHT22;40860;51.710;8.736;2023-09-19T17:30:12;18.60;79.10
54960;DHT22;40860;51.710;8.736;2023-09-19T17:34:16;18.50;79.30
54960;DHT22;40860;51.710;8.736;2023-09-19T17:38:20;18.40;79.80
54960;DHT22;40860;51.710;8.736;2023-09-19T17:42:25;18.30;80.40
54960;DHT22;40860;51.710;8.736;2023-09-19T17:46:29;18.20;81.00
54960;DHT22;40860;51.710;8.736;2023-09-19T17:50:32;18.10;81.70
54960;DHT22;40860;51.710;8.736;2023-09-19T17:54:36;18.10;82.30
54960;DHT22;40860;51.710;8.736;2023-09-19T17:58:41;18.00;82.80
54960;DHT22;40860;51.710;8.736;2023-09-19T18:02:45;17.90;83.00
54960;DHT22;40860;51.710;8.736;2023-09-19T18:06:48;17.80;83.40
54960;DHT22;40860;51.710;8.736;2023-09-19T18:10:51;17.80;83.90
54960;DHT22;40860;51.710;8.736;2023-09-19T18:14:56;17.70;84.60
54960;DHT22;40860;51.710;8.736;2023-09-19T18:18:59;17.60;84.80
54960;DHT22;40860;51.710;8.736;2023-09-19T18:23:03;17.50;85.20
54960;DHT22;40860;51.710;8.736;2023-09-19T18:27:06;17.50;85.40
54960;DHT22;40860;51.710;8.736;2023-09-19T18:31:11;17.40;85.90
54960;DHT22;40860;51.710;8.736;2023-09-19T18:35:14;17.40;86.00
54960;DHT22;40860;51.710;8.736;2023-09-19T18:39:17;17.40;86.10
54960;DHT22;40860;51.710;8.736;2023-09-19T18:43:22;17.30;86.10
54960;DHT22;40860;51.710;8.736;2023-09-19T18:47:26;17.30;86.00
54960;DHT22;40860;51.710;8.736;2023-09-19T18:51:30;17.30;86.20
54960;DHT22;40860;51.710;8.736;2023-09-19T18:55:35;17.30;86.10
54960;DHT22;40860;51.710;8.736;2023-09-19T18:59:38;17.30;86.00
54960;DHT22;40860;51.710;8.736;2023-09-19T19:03:42;17.30;86.20
54960;DHT22;40860;51.710;8.736;2023-09-19T19:07:47;17.30;86.10
54960;DHT22;40860;51.710;8.736;2023-09-19T19:11:51;17.20;86.00
54960;DHT22;40860;51.710;8.736;2023-09-19T19:15:56;17.20;86.20
54960;DHT22;40860;51.710;8.736;2023-09-19T19:20:02;17.30;86.00
54960;DHT22;40860;51.710;8.736;2023-09-19T19:24:07;17.30;86.20
54960;DHT22;40860;51.710;8.736;2023-09-19T19:28:10;17.30;86.20
54960;DHT22;40860;51.710;8.736;2023-09-19T19:32:13;17.30;86.00
54960;DHT22;40860;51.710;8.736;2023-09-19T19:36:17;17.30;86.20
54960;DHT22;40860;51.710;8.736;2023-09-19T19:40:21;17.40;86.00
54960;DHT22;40860;51.710;8.736;2023-09-19T19:44:29;17.40;86.10
54960;DHT22;40860;51.710;8.736;2023-09-19T19:48:41;17.40;86.10
54960;DHT22;40860;51.710;8.736;2023-09-19T19:52:50;17.50;86.00
54960;DHT22;40860;51.710;8.736;2023-09-19T19:56:55;17.50;86.00
54960;DHT22;40860;51.710;8.736;2023-09-19T20:00:58;17.50;85.80
54960;DHT22;40860;51.710;8.736;2023-09-19T20:05:01;17.60;86.00
54960;DHT22;40860;51.710;8.736;2023-09-19T20:09:07;17.60;85.70
54960;DHT22;40860;51.710;8.736;2023-09-19T20:13:11;17.60;85.90
54960;DHT22;40860;51.710;8.736;2023-09-19T20:17:15;17.60;85.70
54960;DHT22;40860;51.710;8.736;2023-09-19T20:21:18;17.70;86.00
54960;DHT22;40860;51.710;8.736;2023-09-19T20:25:25;17.70;85.90
54960;DHT22;40860;51.710;8.736;2023-09-19T20:29:29;17.60;86.20
54960;DHT22;40860;51.710;8.736;2023-09-19T20:33:35;17.60;86.20
54960;DHT22;40860;51.710;8.736;2023-09-19T20:37:40;17.60;86.70
54960;DHT22;40860;51.710;8.736;2023-09-19T20:41:45;17.50;87.00
54960;DHT22;40860;51.710;8.736;2023-09-19T20:45:48;17.50;87.30
54960;DHT22;40860;51.710;8.736;2023-09-19T20:49:54;17.40;87.30
54960;DHT22;40860;51.710;8.736;2023-09-19T20:53:58;17.40;87.60
54960;DHT22;40860;51.710;8.736;2023-09-19T20:58:04;17.40;87.70
54960;DHT22;40860;51.710;8.736;2023-09-19T21:02:08;17.40;87.60
54960;DHT22;40860;51.710;8.736;2023-09-19T21:06:12;17.40;87.80
54960;DHT22;40860;51.710;8.736;2023-09-19T21:10:17;17.30;88.00
54960;DHT22;40860;51.710;8.736;2023-09-19T21:14:21;17.30;88.40
54960;DHT22;40860;51.710;8.736;2023-09-19T21:18:24;17.30;88.50
54960;DHT22;40860;51.710;8.736;2023-09-19T21:22:27;17.30;88.60
54960;DHT22;40860;51.710;8.736;2023-09-19T21:26:30;17.20;88.70
54960;DHT22;40860;51.710;8.736;2023-09-19T21:30:34;17.20;89.20
54960;DHT22;40860;51.710;8.736;2023-09-19T21:34:38;17.20;89.10
54960;DHT22;40860;51.710;8.736;2023-09-19T21:38:41;17.20;89.20
54960;DHT22;40860;51.710;8.736;2023-09-19T21:42:44;17.20;89.30
54960;DHT22;40860;51.710;8.736;2023-09-19T21:46:49;17.20;89.50
54960;DHT22;40860;51.710;8.736;2023-09-19T21:50:54;17.30;89.60
54960;DHT22;40860;51.710;8.736;2023-09-19T21:54:57;17.30;89.70
54960;DHT22;40860;51.710;8.736;2023-09-19T21:59:01;17.30;89.90
54960;DHT22;40860;51.710;8.736;2023-09-19T22:03:06;17.30;89.70
54960;DHT22;40860;51.710;8.736;2023-09-19T22:07:09;17.30;89.80
54960;DHT22;40860;51.710;8.736;2023-09-19T22:11:12;17.40;90.00
54960;DHT22;40860;51.710;8.736;2023-09-19T22:15:17;17.40;90.00
54960;DHT22;40860;51.710;8.736;2023-09-19T22:19:21;17.40;90.00
54960;DHT22;40860;51.710;8.736;2023-09-19T22:23:24;17.50;90.00
54960;DHT22;40860;51.710;8.736;2023-09-19T22:27:33;17.50;90.00
54960;DHT22;40860;51.710;8.736;2023-09-19T22:31:37;17.50;90.00
54960;DHT22;40860;51.710;8.736;2023-09-19T22:35:46;17.50;90.10
54960;DHT22;40860;51.710;8.736;2023-09-19T22:40:02;17.50;90.20
54960;DHT22;40860;51.710;8.736;2023-09-19T22:44:13;17.50;90.20
54960;DHT22;40860;51.710;8.736;2023-09-19T22:48:16;17.60;90.30
54960;DHT22;40860;51.710;8.736;2023-09-19T22:52:20;17.60;90.30
54960;DHT22;40860;51.710;8.736;2023-09-19T22:56:26;17.60;90.40
54960;DHT22;40860;51.710;8.736;2023-09-19T23:00:29;17.60;90.50
54960;DHT22;40860;51.710;8.736;2023-09-19T23:04:35;17.60;90.50
54960;DHT22;40860;51.710;8.736;2023-09-19T23:08:40;17.60;90.60
54960;DHT22;40860;51.710;8.736;2023-09-19T23:12:43;17.60;90.80
54960;DHT22;40860;51.710;8.736;2023-09-19T23:16:47;17.60;90.80
54960;DHT22;40860;51.710;8.736;2023-09-19T23:20:58;17.60;90.80
54960;DHT22;40860;51.710;8.736;2023-09-19T23:25:17;17.60;90.90
54960;DHT22;40860;51.710;8.736;2023-09-19T23:29:28;17.60;91.00
54960;DHT22;40860;51.710;8.736;2023-09-19T23:33:30;17.60;91.10
54960;DHT22;40860;51.710;8.736;2023-09-19T23:37:33;17.70;91.00
54960;DHT22;40860;51.710;8.736;2023-09-19T23:41:38;17.70;91.00
54960;DHT22;40860;51.710;8.736;2023-09-19T23:45:40;17.70;91.10
54960;DHT22;40860;51.710;8.736;2023-09-19T23:49:46;17.70;91.10
54960;DHT22;40860;51.710;8.736;2023-09-19T23:53:50;17.70;91.10
54960;DHT22;40860;51.710;8.736;2023-09-19T23:57:55;17.70;91.20
